Flight Track Log - Related Links

Times and Time Zones

All times are in EDT time to prevent confusion due to time zone crossing. See the FLG4340 flight status page for this flight to view local times or setup timezone preferences in your user account.

Time Position Orientation Groundspeed Altitude Reporting Facility
EDT Latitude Longitude Course Direction KTS MPH feet Rate Location/Type
Sat 11:09:33 AM 28.4167 -81.3000 156° South 160 184 400  Level Orlando TRACON
Sat 11:10:09 AM 28.3833 -81.2833 164° South 163 188 1,600 1,867 Climbing Orlando TRACON
Sat 11:11:03 AM 28.3333 -81.2667 90° East 198 228 3,200 1,736 Climbing Orlando TRACON
Sat 11:12:10 AM 28.3333 -81.1833 36° Northeast 255 293 5,100 2,091 Climbing Orlando TRACON
Sat 11:13:58 AM 28.4194 -81.1131 342° North 294 338 9,300 2,143 Climbing Jacksonville Center
Sat 11:14:58 AM 28.4989 -81.1422 339° North 280 322 11,100 1,500 Climbing Jacksonville Center
Sat 11:15:58 AM 28.5892 -81.1808 341° North 299 344 12,300 1,500 Climbing Jacksonville Center
Sat 11:16:58 AM 28.6836 -81.2172 339° North 334 384 14,100 1,850 Climbing Jacksonville Center
Sat 11:17:58 AM 28.7761 -81.2581 339° North 348 400 16,000 1,750 Climbing Jacksonville Center
Sat 11:18:58 AM 28.8706 -81.2994 343° North 353 406 17,600 1,350 Climbing Jacksonville Center
Sat 11:19:58 AM 28.9669 -81.3333 340° North 353 406 18,700 950 Climbing Jacksonville Center
Sat 11:20:58 AM 29.0656 -81.3744 351° North 365 420 19,500 750 Climbing Jacksonville Center
Sat 11:21:58 AM 29.1722 -81.3944 354° North 378 435 20,200 900 Climbing Jacksonville Center
Sat 11:22:58 AM 29.2789 -81.4069 355° North 389 448 21,300 1,100 Climbing Jacksonville Center
Sat 11:23:58 AM 29.3875 -81.4172 353° North 382 440 22,400 850 Climbing Jacksonville Center
Sat 11:24:58 AM 29.4794 -81.4303 355° North 385 443 23,000 550 Climbing Jacksonville Center
Sat 11:25:58 AM 29.5903 -81.4406 355° North 385 443 23,500 500 Climbing Jacksonville Center
Sat 11:26:58 AM 29.7008 -81.4508 355° North 385 443 24,000 800 Climbing Jacksonville Center
Sat 11:27:58 AM 29.8117 -81.4611 355° North 391 450 25,100 1,150 Climbing Jacksonville Center
Sat 11:28:58 AM 29.9203 -81.4714 355° North 391 450 26,300 1,100 Climbing Jacksonville Center
Sat 11:29:58 AM 30.0269 -81.4819 340° North 385 443 27,300 800 Climbing Jacksonville Center
Sat 11:30:58 AM 30.1403 -81.5308 342° North 385 443 27,900 550 Climbing Jacksonville Center
Sat 11:31:58 AM 30.2431 -81.5700 341° North 390 449 28,400 500 Climbing Jacksonville Center
Sat 11:32:58 AM 30.3519 -81.6144 342° North 395 455 28,900 750 Climbing Jacksonville Center
Sat 11:33:58 AM 30.4589 -81.6539 358° North 400 460 29,900 850 Climbing Jacksonville Center
Sat 11:34:58 AM 30.5675 -81.6572 14° North 390 449 30,600 550 Climbing Jacksonville Center
Sat 11:35:58 AM 30.6736 -81.6269 14° North 384 442 31,000 200 Climbing Jacksonville Center
Sat 11:36:58 AM 30.7839 -81.5942 15° North 389 448 31,000  Level Jacksonville Center
Sat 11:37:58 AM 30.8756 -81.5661 13° North 396 456 31,000  Level Jacksonville Center
Sat 11:38:58 AM 31.0131 -81.5278 14° North 408 470 31,000  Level Jacksonville Center
Sat 11:39:58 AM 31.1294 -81.4947 15° North 421 484 31,000  Level Jacksonville Center
Sat 11:40:58 AM 31.2231 -81.4664 12° North 431 496 31,000  Level Jacksonville Center
Sat 11:41:58 AM 31.3625 -81.4303 14° North 431 496 31,000  Level Jacksonville Center
Sat 11:42:58 AM 31.4833 -81.3944 14° North 436 502 31,000  Level Jacksonville Center
Sat 11:43:58 AM 31.5914 -81.3633 13° North 437 503 31,000  Level Jacksonville Center
Sat 11:44:58 AM 31.7206 -81.3269 14° North 437 503 31,000  Level Jacksonville Center
Sat 11:45:58 AM 31.8411 -81.2908 14° North 436 502 31,000  Level Jacksonville Center
Sat 11:46:58 AM 31.9617 -81.2544 14° North 438 504 31,000  Level Jacksonville Center
Sat 11:47:58 AM 32.0844 -81.2178 North 438 504 31,000  Level Jacksonville Center
Sat 11:48:58 AM 32.2075 -81.1958 North 443 510 31,000  Level Jacksonville Center
Sat 11:49:58 AM 32.3325 -81.1886 North 451 519 31,000  Level Jacksonville Center
Sat 11:50:58 AM 32.4450 -81.1767 North 451 519 31,000  Level Jacksonville Center
Sat 11:51:58 AM 32.5828 -81.1642 North 451 519 31,000  Level Jacksonville Center
Sat 11:52:58 AM 32.7100 -81.1519 22° Northeast 451 519 31,000  Level Jacksonville Center
Sat 11:53:58 AM 32.8261 -81.0953 24° Northeast 439 505 31,000  Level Jacksonville Center
Sat 11:54:58 AM 32.9400 -81.0361 23° Northeast 439 505 31,000  Level Jacksonville Center
Sat 11:55:58 AM 33.0558 -80.9767 23° Northeast 444 511 31,000  Level Jacksonville Center
Sat 11:56:58 AM 33.1739 -80.9172 24° Northeast 444 511 31,000  Level Jacksonville Center
Sat 11:57:58 AM 33.2878 -80.8575 24° Northeast 450 518 31,000  Level Jacksonville Center
Sat 11:58:58 AM 33.4036 -80.7950 24° Northeast 455 524 31,000  Level Jacksonville Center
Sat 11:59:58 AM 33.4967 -80.7456 23° Northeast 455 524 31,000  Level Jacksonville Center
Sat 12:00:58 PM 33.6250 -80.6800 24° Northeast 455 524 31,000 -200 Level Jacksonville Center
Sat 12:01:58 PM 33.7408 -80.6172 24° Northeast 455 524 30,600 -700 Descending Jacksonville Center
Sat 12:02:58 PM 33.8586 -80.5542 24° Northeast 455 524 29,600 -800 Descending Jacksonville Center
Sat 12:03:58 PM 33.9764 -80.4911 23° Northeast 455 524 29,000 -300 Descending Jacksonville Center
Sat 12:04:58 PM 34.0858 -80.4353 25° Northeast 448 516 29,000 -800 Level Jacksonville Center
Sat 12:05:58 PM 34.1994 -80.3719 23° Northeast 442 509 27,400 -1,750 Descending Jacksonville Center
Sat 12:06:58 PM 34.3150 -80.3131 24° Northeast 442 509 25,500 -1,900 Descending Jacksonville Center
Sat 12:07:58 PM 34.4283 -80.2519 24° Northeast 442 509 23,600 -1,371 Descending Jacksonville Center
Sat 12:10:15 PM 34.6786 -80.1178 26° Northeast 408 470 21,000 -788 Descending Washington Center
Sat 12:11:16 PM 34.7853 -80.0553 40° Northeast 413 475 21,000  Level Washington Center
Sat 12:12:16 PM 34.8700 -79.9689 42° Northeast 424 488 21,000  Level Washington Center
Sat 12:13:17 PM 34.9569 -79.8722 42° Northeast 429 494 21,000  Level Washington Center
Sat 12:14:14 PM 35.0458 -79.7728 41° Northeast 429 494 21,000 -966 Level Washington Center
Sat 12:15:15 PM 35.1347 -79.6786 39° Northeast 429 494 19,100 -2,628 Descending Washington Center
Sat 12:16:15 PM 35.2319 -79.5817 27° Northeast 410 472 15,700 -3,076 Descending Washington Center
Sat 12:17:14 PM 35.3236 -79.5253 North 381 438 13,000 -2,543 Descending Washington Center
Sat 12:17:47 PM 35.3758 -79.5200 42° Northeast 372 428 11,800 -1,277 Descending Washington Center
Sat 12:18:48 PM 35.4517 -79.4369 51° Northeast 381 438 11,000 -397 Descending Washington Center
Sat 12:19:48 PM 35.5194 -79.3358 52° Northeast 383 441 11,000  Level Washington Center
Sat 12:20:49 PM 35.5875 -79.2292 52° Northeast 375 432 11,000  Level Washington Center
Sat 12:21:49 PM 35.6531 -79.1272 50° Northeast 373 429 11,000 -179 Level Washington Center
Sat 12:23:03 PM 35.7294 -79.0131 55° Northeast 377 434 10,600 -800 Descending Washington Center
Sat 12:24:04 PM 35.7822 -78.9206 31° Northeast 312 359 9,200 -1,191 Descending Washington Center
Sat 12:25:14 PM 35.8567 -78.8647 30° Northeast 285 328 8,000 -626 Descending Washington Center
Sat 12:25:59 PM 35.9122 -78.8258 28° Northeast 282 325 8,000 -906 Level Washington Center
Sat 12:27:00 PM 35.9781 -78.7825 45° Northeast 266 306 6,400 -1,669 Descending Washington Center
Sat 12:28:12 PM 36.0339 -78.7128 159° South 258 297 4,300 -1,489 Descending Washington Center
Sat 12:29:13 PM 35.9806 -78.6875 211° Southwest 218 251 3,100 -1,223 Descending Washington Center
Sat 12:29:55 PM 35.9506 -78.7094 225° Southwest 193 222 2,200 -1,165 Descending Washington Center
Sat 12:30:56 PM 35.9139 -78.7542 225° Southwest 162 186 1,100 -1,082 Descending Washington Center

Login

Don't have an account? Register now (free) for customized features, flight alerts, and more!